Time;durP1;ratioP1;P1;durP2;ratioP2;P2;SDS_P1;SDS_P2;PMS_P1;PMS_P2;Temp;Humidity;BMP_temperature;BMP_pressure;BME280_temperature;BME280_humidity;BME280_pressure;Samples;Min_cycle;Max_cycle;Signal;HPM_P1;HPM_P2
2022/05/19 00:02:11;;;;;;;14.63;5.57;;;;;;;18.02;77.62;101343.50;5042374;28;20033;-91
2022/05/19 00:04:41;;;;;;;16.85;6.07;;;;;;;18.19;76.25;101351.28;5042478;28;20033;-91
2022/05/19 00:07:07;;;;;;;18.45;5.70;;;;;;;18.20;76.26;101348.41;5042018;28;20049;-89
2022/05/19 00:09:34;;;;;;;19.65;6.32;;;;;;;18.38;74.71;101340.72;5040697;28;20033;-88
2022/05/19 00:12:03;;;;;;;24.65;5.78;;;;;;;18.34;73.48;101346.66;5041985;28;20494;-89
2022/05/19 00:14:30;;;;;;;17.88;5.57;;;;;;;18.20;74.46;101339.50;5025317;28;20109;-91
2022/05/19 00:16:57;;;;;;;12.02;5.68;;;;;;;18.20;74.38;101351.06;5024325;28;20061;-90
2022/05/19 00:19:24;;;;;;;13.05;6.00;;;;;;;18.26;74.46;101352.19;5043379;28;20041;-90
2022/05/19 00:21:50;;;;;;;13.82;6.22;;;;;;;18.21;74.67;101350.06;5026493;28;20026;-88
2022/05/19 00:24:16;;;;;;;10.27;6.32;;;;;;;18.22;73.99;101351.72;5043385;28;20033;-89
2022/05/19 00:26:44;;;;;;;12.27;6.45;;;;;;;18.23;74.16;101355.25;5041978;28;20033;-88
2022/05/19 00:29:10;;;;;;;16.13;7.03;;;;;;;18.35;73.68;101354.53;5051802;28;20487;-88
2022/05/19 00:31:36;;;;;;;10.35;6.32;;;;;;;18.34;73.43;101347.50;5042271;28;20029;-88
2022/05/19 00:34:03;;;;;;;12.65;7.05;;;;;;;18.20;73.93;101355.59;5041674;28;20035;-88
2022/05/19 00:36:32;;;;;;;16.08;7.32;;;;;;;18.05;75.06;101358.38;5024819;28;20061;-90
2022/05/19 00:39:00;;;;;;;13.95;6.90;;;;;;;17.94;75.30;101351.63;5042323;28;20109;-88
2022/05/19 00:41:27;;;;;;;13.70;6.53;;;;;;;18.16;74.04;101360.56;5046094;28;20041;-87
2022/05/19 00:44:01;;;;;;;13.05;7.07;;;;;;;17.90;75.57;101360.25;5042910;28;20111;-89
2022/05/19 00:46:39;;;;;;;12.95;7.15;;;;;;;17.85;76.01;101365.34;5022687;28;20061;-92
2022/05/19 00:49:38;;;;;;;12.88;7.00;;;;;;;17.68;77.29;101353.19;5041151;28;20048;-90
2022/05/19 00:52:19;;;;;;;16.10;7.38;;;;;;;17.75;76.53;101352.25;5039555;28;20340;-89
2022/05/19 00:54:58;;;;;;;12.10;7.72;;;;;;;17.68;76.74;101354.03;5021767;28;20029;-91
2022/05/19 00:57:27;;;;;;;15.95;7.13;;;;;;;17.66;77.28;101348.03;5021926;28;20498;-89
2022/05/19 00:59:58;;;;;;;15.85;6.95;;;;;;;17.52;78.04;101351.53;5039649;28;20041;-89
2022/05/19 01:02:28;;;;;;;12.07;7.20;;;;;;;17.39;79.35;101351.34;5022929;28;20587;-89
2022/05/19 01:04:59;;;;;;;12.73;7.63;;;;;;;17.41;79.06;101349.31;5039337;28;20040;-91
2022/05/19 01:07:35;;;;;;;13.93;7.68;;;;;;;17.44;79.36;101360.50;5040267;28;20034;-90
2022/05/19 01:10:05;;;;;;;15.27;7.32;;;;;;;17.19;81.25;101371.69;5040205;28;20091;-90
2022/05/19 01:12:31;;;;;;;18.60;7.95;;;;;;;17.28;81.48;101371.41;5040646;28;20029;-90
2022/05/19 01:15:01;;;;;;;16.20;7.88;;;;;;;17.45;80.49;101372.03;5039994;28;20107;-87
2022/05/19 01:17:27;;;;;;;13.98;7.25;;;;;;;17.54;80.14;101373.59;5021991;28;20451;-89
2022/05/19 01:20:04;;;;;;;12.95;8.27;;;;;;;17.46;80.70;101371.03;5040219;28;20096;-89
2022/05/19 01:22:38;;;;;;;14.25;8.48;;;;;;;17.37;81.27;101375.66;5039011;28;20037;-90
2022/05/19 01:25:09;;;;;;;20.58;8.25;;;;;;;17.47;81.45;101375.34;5021991;28;20057;-91
2022/05/19 01:27:36;;;;;;;13.00;8.05;;;;;;;17.33;82.42;101373.53;5024174;28;20060;-91
2022/05/19 01:30:09;;;;;;;23.77;8.18;;;;;;;17.17;84.51;101373.72;5054658;28;20031;-90
2022/05/19 01:32:37;;;;;;;15.45;8.07;;;;;;;16.83;88.01;101376.91;5049921;28;20111;-89
2022/05/19 01:35:04;;;;;;;14.85;9.68;;;;;;;16.76;89.19;101382.16;5038803;28;20030;-92
2022/05/19 01:37:32;;;;;;;17.80;8.93;;;;;;;16.86;88.88;101382.75;5021494;28;20029;-90
2022/05/19 01:40:13;;;;;;;15.02;8.73;;;;;;;16.90;89.67;101384.00;5006107;28;20034;-91
2022/05/19 01:43:16;;;;;;;17.60;8.93;;;;;;;16.81;90.26;101385.13;5041176;28;20552;-91
2022/05/19 01:45:55;;;;;;;16.10;8.27;;;;;;;16.88;90.77;101380.69;5040899;28;20033;-90
2022/05/19 01:48:33;;;;;;;15.55;8.25;;;;;;;16.79;92.60;101389.81;5054656;28;20048;-90
2022/05/19 01:51:21;;;;;;;19.52;8.25;;;;;;;16.88;92.64;101394.09;5052570;28;20046;-88
2022/05/19 01:54:06;;;;;;;18.88;8.07;;;;;;;16.72;94.62;101396.91;5051788;28;20116;-89
2022/05/19 01:57:01;;;;;;;16.38;7.95;;;;;;;16.68;95.79;101394.78;5037940;28;20118;-88
2022/05/19 01:59:40;;;;;;;15.30;8.05;;;;;;;16.69;96.43;101397.28;5031639;28;20053;-88
2022/05/19 02:02:10;;;;;;;16.65;7.68;;;;;;;16.74;96.71;101396.72;5023378;28;20037;-89
2022/05/19 02:04:47;;;;;;;13.93;7.28;;;;;;;16.76;96.39;101398.22;5019946;28;20038;-89
2022/05/19 02:07:16;;;;;;;16.95;7.38;;;;;;;16.80;96.12;101391.50;5003584;28;20037;-88
2022/05/19 02:09:53;;;;;;;13.60;6.97;;;;;;;16.90;95.26;101392.03;5037853;28;20037;-89
2022/05/19 02:12:21;;;;;;;14.73;6.68;;;;;;;16.91;95.15;101391.03;5036725;28;20123;-88
2022/05/19 02:14:53;;;;;;;12.13;6.82;;;;;;;16.69;96.31;101399.13;5037161;28;20034;-87
2022/05/19 02:17:22;;;;;;;15.20;6.13;;;;;;;16.75;96.32;101393.88;5035992;28;20032;-90
2022/05/19 02:19:54;;;;;;;9.60;6.07;;;;;;;16.57;97.65;101398.72;5036612;28;20033;-87
2022/05/19 02:22:29;;;;;;;14.32;7.18;;;;;;;16.59;97.53;101406.56;5037937;28;20029;-88
2022/05/19 02:25:12;;;;;;;16.42;6.70;;;;;;;16.67;97.46;101415.34;5016978;28;20045;-90
2022/05/19 02:27:57;;;;;;;12.90;6.25;;;;;;;16.85;95.87;101417.72;5036562;28;20030;-88
2022/05/19 02:30:29;;;;;;;12.65;7.07;;;;;;;16.69;96.57;101418.69;5036915;28;20033;-91
2022/05/19 02:32:55;;;;;;;;;;;;;;;16.75;95.88;101430.53;5004719;28;20045;-88
2022/05/19 02:35:21;;;;;;;13.75;6.80;;;;;;;16.80;95.92;101429.00;5020359;28;20016;-90
2022/05/19 02:37:47;;;;;;;14.18;6.80;;;;;;;16.76;96.59;101433.03;5020418;28;20036;-90
2022/05/19 02:40:15;;;;;;;10.43;6.18;;;;;;;16.85;96.47;101423.91;5036699;28;20197;-89
2022/05/19 02:42:41;;;;;;;9.95;6.22;;;;;;;16.98;95.13;101423.28;5018002;28;20476;-88
2022/05/19 02:45:07;;;;;;;13.85;6.60;;;;;;;17.05;94.61;101435.78;5017297;28;20029;-90
2022/05/19 02:47:34;;;;;;;20.23;5.95;;;;;;;17.12;94.10;101437.72;5002510;28;20203;-90
2022/05/19 02:50:00;;;;;;;11.93;6.13;;;;;;;17.25;92.26;101432.56;5036928;28;20041;-91
2022/05/19 02:52:26;;;;;;;15.43;6.30;;;;;;;16.98;94.85;101434.84;5035886;28;20061;-88
2022/05/19 02:54:54;;;;;;;10.32;6.60;;;;;;;16.85;95.82;101431.94;5035514;28;20087;-88
2022/05/19 02:57:20;;;;;;;12.13;6.50;;;;;;;16.62;97.72;101427.63;5034779;28;20392;-88
2022/05/19 02:59:49;;;;;;;17.05;7.20;;;;;;;16.24;100.00;101414.13;5035849;28;20037;-90
2022/05/19 03:02:14;;;;;;;13.90;7.57;;;;;;;16.15;100.00;101409.00;5036296;28;20038;-87
2022/05/19 03:04:43;;;;;;;12.00;6.68;;;;;;;15.94;100.00;101412.31;5033942;28;20064;-86
2022/05/19 03:07:09;;;;;;;16.75;8.45;;;;;;;15.88;100.00;101413.84;5044291;28;20485;-87
2022/05/19 03:09:40;;;;;;;15.77;8.00;;;;;;;15.96;100.00;101421.84;5033650;28;20044;-87
2022/05/19 03:12:09;;;;;;;18.10;7.40;;;;;;;15.97;100.00;101423.47;5034384;28;20056;-88
2022/05/19 03:14:35;;;;;;;17.20;7.40;;;;;;;15.96;100.00;101426.34;5035026;28;20044;-87
2022/05/19 03:17:01;;;;;;;13.90;7.40;;;;;;;15.95;100.00;101432.69;5016606;28;20033;-88
2022/05/19 03:19:26;;;;;;;18.48;7.65;;;;;;;15.59;100.00;101428.84;5019008;28;20060;-87
2022/05/19 03:21:52;;;;;;;11.85;7.22;;;;;;;15.46;100.00;101432.03;5034989;28;20041;-87
2022/05/19 03:24:17;;;;;;;14.50;7.57;;;;;;;15.43;100.00;101435.88;5038448;28;20188;-86
2022/05/19 03:26:43;;;;;;;9.68;6.60;;;;;;;15.45;100.00;101425.00;5036353;28;20057;-88
2022/05/19 03:29:09;;;;;;;12.18;7.30;;;;;;;15.59;100.00;101421.66;5036568;28;20440;-87
2022/05/19 03:31:35;;;;;;;11.80;7.15;;;;;;;15.68;100.00;101423.28;5039906;28;20033;-88
2022/05/19 03:34:02;;;;;;;9.13;6.13;;;;;;;15.76;100.00;101425.94;5037619;28;20037;-88
2022/05/19 03:36:29;;;;;;;12.32;6.97;;;;;;;15.58;100.00;101428.00;5038334;28;20057;-89
2022/05/19 03:38:55;;;;;;;15.32;7.72;;;;;;;15.81;100.00;101425.44;5039131;28;20041;-87
2022/05/19 03:41:22;;;;;;;12.15;7.57;;;;;;;15.92;100.00;101425.84;5038663;28;20033;-89
2022/05/19 03:43:48;;;;;;;15.77;8.18;;;;;;;15.71;100.00;101433.63;5019667;28;20535;-85
2022/05/19 03:46:13;;;;;;;16.50;7.63;;;;;;;15.74;100.00;101435.94;5037873;28;20037;-89
2022/05/19 03:48:40;;;;;;;18.05;7.68;;;;;;;15.78;100.00;101433.75;5020407;28;20029;-87
2022/05/19 03:51:11;;;;;;;15.32;6.40;;;;;;;15.77;100.00;101443.66;5020980;28;20381;-86
2022/05/19 03:53:37;;;;;;;19.15;7.13;;;;;;;15.81;100.00;101436.94;5024693;28;20044;-84
2022/05/19 03:56:03;;;;;;;16.42;7.45;;;;;;;15.86;100.00;101445.28;5025508;28;20045;-89
2022/05/19 03:58:31;;;;;;;15.85;7.25;;;;;;;15.92;100.00;101441.91;5023386;28;20452;-87
2022/05/19 04:00:57;;;;;;;45.05;24.63;;;;;;;15.98;100.00;101446.53;5037323;28;20057;-87
2022/05/19 04:03:23;;;;;;;16.35;8.57;;;;;;;16.05;99.31;101462.72;5021950;28;20131;-89
2022/05/19 04:05:49;;;;;;;20.50;7.22;;;;;;;15.96;100.00;101458.44;5026121;28;20040;-85
2022/05/19 04:08:15;;;;;;;20.60;10.77;;;;;;;16.17;99.13;101460.50;5030301;28;20046;-89
2022/05/19 04:10:44;;;;;;;16.13;7.35;;;;;;;16.11;99.05;101455.88;5040647;28;20075;-87
2022/05/19 04:13:14;;;;;;;18.20;7.85;;;;;;;16.04;99.55;101455.72;5039397;28;20034;-86
2022/05/19 04:15:40;;;;;;;15.52;7.35;;;;;;;16.01;99.26;101456.88;5038205;28;20432;-88
2022/05/19 04:18:06;;;;;;;19.02;8.02;;;;;;;16.01;98.92;101461.41;5021768;28;20049;-85
2022/05/19 04:20:32;;;;;;;12.40;7.97;;;;;;;15.86;97.91;101461.31;5037413;28;20038;-87
2022/05/19 04:22:58;;;;;;;13.35;8.20;;;;;;;15.99;97.84;101466.94;5043865;28;20025;-86
2022/05/19 04:25:24;;;;;;;11.48;7.55;;;;;;;16.11;96.76;101466.56;5054176;28;20037;-87
2022/05/19 04:27:50;;;;;;;10.50;7.70;;;;;;;16.27;94.93;101477.16;5039593;28;20064;-85
2022/05/19 04:30:15;;;;;;;13.55;8.18;;;;;;;16.35;94.44;101490.47;5036849;28;20041;-84
2022/05/19 04:32:42;;;;;;;12.23;7.95;;;;;;;16.50;93.72;101488.72;5035960;28;20025;-82
2022/05/19 04:35:08;;;;;;;12.15;7.82;;;;;;;16.58;93.75;101485.19;5035515;28;20041;-83
2022/05/19 04:37:34;;;;;;;13.52;7.97;;;;;;;16.67;92.70;101479.59;5037589;28;20567;-84
2022/05/19 04:40:01;;;;;;;14.93;8.20;;;;;;;17.02;90.60;101481.66;5043571;28;20108;-82
2022/05/19 04:42:27;;;;;;;16.17;8.15;;;;;;;17.12;89.56;101484.09;5042844;28;20048;-85
2022/05/19 04:44:54;;;;;;;12.45;8.00;;;;;;;17.34;88.99;101493.09;5025202;28;20036;-86
2022/05/19 04:47:20;;;;;;;17.90;7.93;;;;;;;17.34;88.71;101498.44;5020875;28;20024;-89
2022/05/19 04:49:51;;;;;;;12.77;8.53;;;;;;;17.30;87.54;101503.34;5029312;28;20033;-90
2022/05/19 04:52:17;;;;;;;14.85;7.78;;;;;;;17.51;84.75;101510.69;5014100;28;20363;-88
2022/05/19 04:54:50;;;;;;;16.30;7.95;;;;;;;17.59;85.40;101507.97;5069313;23;20129;-88
2022/05/19 04:57:17;;;;;;;15.32;8.20;;;;;;;17.53;85.32;101504.09;5001687;28;20035;-88
2022/05/19 04:59:50;;;;;;;15.70;8.30;;;;;;;17.49;85.95;101502.00;5009435;23;20041;-91
2022/05/19 05:02:25;;;;;;;15.73;8.05;;;;;;;17.75;84.93;101512.28;5060111;28;20033;-94
2022/05/19 05:04:51;;;;;;;17.30;7.40;;;;;;;17.76;83.65;101514.81;5041128;28;20051;-93
2022/05/19 05:07:17;;;;;;;14.23;8.23;;;;;;;17.46;86.12;101513.91;5039108;28;20568;-92
2022/05/19 05:09:42;;;;;;;15.98;7.38;;;;;;;17.70;85.69;101517.41;5045262;28;20029;-92
2022/05/19 05:12:09;;;;;;;18.23;8.45;;;;;;;17.67;85.46;101525.78;5024991;28;20056;-89
2022/05/19 05:14:34;;;;;;;20.50;8.25;;;;;;;17.75;85.10;101529.22;5041777;28;20033;-83
2022/05/19 05:17:00;;;;;;;17.75;8.23;;;;;;;17.82;86.05;101535.53;5042448;28;20416;-85
2022/05/19 05:19:28;;;;;;;23.52;8.30;;;;;;;17.83;86.04;101531.81;5042082;28;20092;-83
2022/05/19 05:21:59;;;;;;;17.35;7.80;;;;;;;17.92;85.81;101545.97;5041855;28;20102;-85
2022/05/19 05:24:25;;;;;;;13.88;7.43;;;;;;;18.09;83.44;101544.78;5045047;28;20447;-84
2022/05/19 05:26:54;;;;;;;17.13;7.25;;;;;;;18.08;81.67;101546.63;5042998;28;20039;-85
2022/05/19 05:29:20;;;;;;;13.48;6.80;;;;;;;18.28;78.24;101557.59;5052078;28;20037;-82
2022/05/19 05:31:46;;;;;;;15.75;6.43;;;;;;;18.34;77.87;101556.00;5056762;28;20072;-84
2022/05/19 05:34:25;;;;;;;21.05;7.25;;;;;;;18.44;78.06;101557.38;5057093;28;20056;-84
2022/05/19 05:36:53;;;;;;;13.40;7.10;;;;;;;18.57;76.30;101554.88;5056056;28;20041;-84
2022/05/19 05:39:19;;;;;;;17.83;8.07;;;;;;;18.67;75.41;101562.63;5055709;28;20097;-84
2022/05/19 05:41:48;;;;;;;11.45;7.40;;;;;;;18.37;76.96;101569.06;5055404;28;20048;-83
2022/05/19 05:44:14;;;;;;;17.58;7.45;;;;;;;18.40;75.88;101556.09;5054960;28;20129;-87
2022/05/19 05:46:44;;;;;;;23.70;8.02;;;;;;;18.49;76.64;101559.53;5040858;28;20033;-87
2022/05/19 05:49:11;;;;;;;14.75;7.38;;;;;;;18.79;74.87;101560.31;5039462;28;20172;-86
2022/05/19 05:51:36;;;;;;;12.60;7.30;;;;;;;19.22;73.91;101563.81;5023830;28;20061;-87
2022/05/19 05:54:02;;;;;;;15.18;7.43;;;;;;;19.42;69.42;101557.59;5040617;28;20038;-88
2022/05/19 05:56:28;;;;;;;20.08;7.75;;;;;;;19.54;69.60;101555.22;5042042;28;20057;-88
2022/05/19 05:58:54;;;;;;;23.55;7.93;;;;;;;19.63;67.03;101570.19;5042117;28;20044;-85
2022/05/19 06:01:20;;;;;;;12.02;7.20;;;;;;;19.88;64.29;101565.19;5039891;28;20041;-85
2022/05/19 06:03:47;;;;;;;18.52;7.85;;;;;;;20.24;65.13;101564.97;5038987;28;20143;-86
2022/05/19 06:06:16;;;;;;;16.48;7.22;;;;;;;20.74;63.50;101563.75;5041797;28;20029;-85
2022/05/19 06:08:42;;;;;;;21.17;7.82;;;;;;;21.30;60.75;101581.28;5040402;28;20036;-85
2022/05/19 06:11:10;;;;;;;20.02;6.97;;;;;;;21.30;60.72;101580.47;5042705;28;20045;-86
2022/05/19 06:13:36;;;;;;;15.23;6.78;;;;;;;21.69;58.37;101591.25;5045831;28;20034;-86
2022/05/19 06:16:12;;;;;;;12.48;5.80;;;;;;;23.02;53.17;101586.03;5044833;28;20045;-88
2022/05/19 06:18:41;;;;;;;14.77;5.72;;;;;;;22.87;51.64;101596.31;5041947;28;20072;-86
2022/05/19 06:21:09;;;;;;;16.58;5.45;;;;;;;22.82;49.69;101600.72;5038910;28;20033;-87
2022/05/19 06:23:51;;;;;;;11.98;5.20;;;;;;;24.01;45.58;101605.00;5041322;28;20037;-88
2022/05/19 06:26:16;;;;;;;13.32;5.25;;;;;;;23.69;45.44;101606.16;5037637;28;20037;-87
2022/05/19 06:28:42;;;;;;;18.58;5.78;;;;;;;24.59;42.81;101607.31;5036877;28;20044;-85
2022/05/19 06:31:07;;;;;;;12.73;5.45;;;;;;;23.01;45.85;101606.00;5039378;28;20101;-85
2022/05/19 06:33:37;;;;;;;14.88;5.15;;;;;;;23.94;45.57;101604.25;5037669;28;20572;-86
2022/05/19 06:36:05;;;;;;;17.95;6.20;;;;;;;24.61;43.52;101607.91;5020582;28;20049;-87
2022/05/19 06:38:31;;;;;;;14.77;5.57;;;;;;;24.48;42.86;101605.34;5041507;28;20030;-85
2022/05/19 06:42:00;;;;;;;10.20;5.22;;;;;;;24.81;42.05;101603.03;5039529;28;20037;-84
2022/05/19 06:43:47;;;;;;;14.75;5.22;;;;;;;24.72;41.48;101607.13;5039385;28;20087;-89
2022/05/19 06:46:14;;;;;;;16.15;5.53;;;;;;;24.84;41.55;101605.31;5038848;28;20546;-86
2022/05/19 06:48:41;;;;;;;20.83;5.72;;;;;;;25.00;41.13;101604.69;5037199;28;20037;-87
2022/05/19 06:51:07;;;;;;;26.88;5.95;;;;;;;24.76;41.49;101608.31;5038172;28;20510;-87
2022/05/19 06:53:32;;;;;;;14.23;4.82;;;;;;;25.18;40.70;101620.06;5036456;28;20034;-89
2022/05/19 06:56:01;;;;;;;15.77;6.13;;;;;;;24.15;42.99;101608.44;5037689;28;20043;-86
2022/05/19 06:58:26;;;;;;;12.45;5.15;;;;;;;24.97;40.97;101607.84;5037218;28;20471;-88
2022/05/19 07:00:53;;;;;;;14.15;4.88;;;;;;;25.47;38.92;101612.94;5024149;28;20034;-91
2022/05/19 07:03:18;;;;;;;15.82;5.40;;;;;;;24.10;41.25;101614.50;5040023;28;20058;-87
2022/05/19 07:05:44;;;;;;;14.00;4.90;;;;;;;23.11;43.70;101611.78;5047943;28;20427;-88
2022/05/19 07:08:14;;;;;;;14.48;5.35;;;;;;;23.16;44.65;101613.84;5040836;28;20438;-87
2022/05/19 07:10:40;;;;;;;9.57;4.82;;;;;;;22.99;44.82;101618.09;5041994;28;20052;-90
2022/05/19 07:13:06;;;;;;;14.13;5.00;;;;;;;24.03;42.93;101600.19;5040097;28;20029;-87
2022/05/19 07:15:32;;;;;;;16.05;4.32;;;;;;;25.15;39.37;101607.81;5040728;28;20060;-87
2022/05/19 07:17:58;;;;;;;11.75;4.15;;;;;;;24.11;40.43;101605.31;5039188;28;20072;-86
2022/05/19 07:23:20;;;;;;;8.90;2.95;;;;;;;24.63;39.32;101603.06;5036878;28;20124;-86
2022/05/19 07:25:46;;;;;;;10.05;2.80;;;;;;;24.48;38.89;101606.19;5038506;28;20447;-85
2022/05/19 07:28:12;;;;;;;10.18;2.65;;;;;;;24.29;39.69;101603.72;5040280;28;20029;-84
2022/05/19 07:30:46;;;;;;;10.70;2.58;;;;;;;24.01;40.37;101609.59;5037443;28;20048;-87
2022/05/19 07:33:11;;;;;;;8.35;2.70;;;;;;;23.83;41.26;101607.69;5037485;28;20384;-88
2022/05/19 07:35:37;;;;;;;7.47;2.70;;;;;;;24.65;39.66;101614.53;5036376;28;20037;-84
2022/05/19 07:38:03;;;;;;;17.88;2.40;;;;;;;24.68;40.08;101612.19;5037112;28;20120;-83
2022/05/19 07:40:28;;;;;;;9.93;2.60;;;;;;;25.47;37.85;101610.22;5046753;28;20126;-89
2022/05/19 07:43:35;;;;;;;10.50;2.50;;;;;;;25.57;37.76;101610.50;5039297;28;20029;-84
2022/05/19 07:45:40;;;;;;;4.18;2.40;;;;;;;25.19;38.10;101614.41;5057432;28;20033;-84
2022/05/19 07:48:06;;;;;;;7.72;2.50;;;;;;;25.07;39.11;101621.69;5056077;28;20134;-82
2022/05/19 07:50:31;;;;;;;7.88;2.25;;;;;;;25.31;37.91;101629.91;5055255;28;20032;-84
2022/05/19 07:52:57;;;;;;;7.65;2.67;;;;;;;24.65;39.78;101617.25;5056880;28;20033;-84
2022/05/19 07:55:22;;;;;;;16.50;2.47;;;;;;;24.78;40.00;101605.38;5058422;28;20183;-84
2022/05/19 07:57:48;;;;;;;10.90;3.00;;;;;;;25.09;38.88;101614.13;5061706;28;20033;-84
2022/05/19 08:00:15;;;;;;;15.38;2.53;;;;;;;25.69;36.78;101614.03;5059552;28;20053;-85
2022/05/19 08:02:40;;;;;;;13.43;2.58;;;;;;;25.92;36.64;101616.75;5039926;28;20053;-83
2022/05/19 08:05:07;;;;;;;7.22;2.30;;;;;;;26.00;37.30;101616.41;5046971;28;20034;-82
2022/05/19 08:07:32;;;;;;;10.63;2.88;;;;;;;26.44;36.16;101625.03;5036249;28;20038;-86
2022/05/19 08:15:37;;;;;;;13.45;2.60;;;;;;;26.15;36.52;101632.25;5036353;28;20400;-85
2022/05/19 08:18:33;;;;;;;9.00;2.05;;;;;;;26.10;36.64;101643.00;5036228;28;20036;-86
2022/05/19 08:21:01;;;;;;;7.95;2.40;;;;;;;26.82;35.12;101636.16;5041891;28;20033;-85
2022/05/19 08:23:32;;;;;;;10.95;2.50;;;;;;;26.60;35.51;101637.84;5056475;28;20029;-85
2022/05/19 08:25:58;;;;;;;11.77;2.20;;;;;;;27.10;34.28;101644.34;5039436;28;20037;-83
2022/05/19 08:28:30;;;;;;;9.48;2.33;;;;;;;27.20;33.92;101636.34;5036460;28;20048;-84
2022/05/19 08:31:21;;;;;;;10.38;2.00;;;;;;;27.36;32.49;101652.94;5036311;28;20095;-81
2022/05/19 08:33:49;;;;;;;9.70;2.20;;;;;;;27.35;32.72;101634.94;5037445;28;20026;-82
2022/05/19 08:36:14;;;;;;;9.75;2.22;;;;;;;26.86;33.52;101637.31;5038743;28;20068;-83
2022/05/19 08:38:44;;;;;;;4.97;2.13;;;;;;;27.08;33.81;101635.56;5034428;28;20065;-83
2022/05/19 08:41:10;;;;;;;4.32;2.22;;;;;;;27.58;32.67;101629.38;5043531;28;20454;-84
2022/05/19 08:43:49;;;;;;;6.63;2.00;;;;;;;27.39;32.56;101628.78;5039685;28;20093;-83
2022/05/19 08:46:25;;;;;;;4.70;1.77;;;;;;;27.65;32.00;101624.59;5039857;28;20052;-84
2022/05/19 08:48:55;;;;;;;6.18;1.92;;;;;;;27.28;32.00;101623.41;5037409;28;20381;-87
2022/05/19 08:51:29;;;;;;;9.35;2.25;;;;;;;27.28;32.13;101623.41;5038509;28;20377;-86
2022/05/19 08:54:05;;;;;;;4.78;1.95;;;;;;;27.53;31.59;101616.53;5042788;28;20093;-81
2022/05/19 08:56:35;;;;;;;11.73;1.98;;;;;;;27.44;31.91;101622.63;5044213;28;20033;-89
2022/05/19 08:59:25;;;;;;;9.52;2.38;;;;;;;27.42;32.49;101616.56;5048418;28;20471;-83
2022/05/19 09:02:01;;;;;;;9.75;1.95;;;;;;;27.49;31.67;101615.34;5045458;28;20056;-84
2022/05/19 09:04:54;;;;;;;11.23;2.05;;;;;;;27.70;31.88;101616.53;5036472;28;20417;-82
2022/05/19 09:07:56;;;;;;;4.93;2.13;;;;;;;27.15;32.93;101614.47;5034881;28;20053;-82
2022/05/19 09:10:25;;;;;;;17.07;1.70;;;;;;;27.36;32.68;101625.72;5042277;28;20131;-81
2022/05/19 09:13:00;;;;;;;14.45;2.13;;;;;;;27.43;32.67;101621.78;5055089;28;20067;-85
2022/05/19 09:15:27;;;;;;;15.70;2.10;;;;;;;28.03;32.09;101613.75;5053532;28;20470;-83
2022/05/19 09:17:52;;;;;;;13.18;1.92;;;;;;;27.39;32.33;101614.31;5051213;28;20048;-86
2022/05/19 09:20:27;;;;;;;17.27;2.35;;;;;;;27.14;34.11;101607.41;5035435;28;20430;-84
2022/05/19 09:22:53;;;;;;;10.70;2.10;;;;;;;27.09;33.71;101604.56;5034830;28;20033;-85
2022/05/19 09:25:21;;;;;;;7.70;1.88;;;;;;;27.50;33.03;101605.28;5034300;28;20392;-86
2022/05/19 09:27:51;;;;;;;9.65;1.73;;;;;;;27.33;32.38;101602.53;5034626;28;20053;-84
2022/05/19 09:30:33;;;;;;;8.77;1.92;;;;;;;27.29;33.09;101604.09;5035655;28;20072;-84
2022/05/19 09:32:59;;;;;;;6.93;1.42;;;;;;;27.40;32.30;101594.22;5033576;28;20040;-87
2022/05/19 09:35:27;;;;;;;9.77;2.05;;;;;;;27.31;32.65;101601.13;5033726;28;20038;-86
2022/05/19 09:38:12;;;;;;;9.00;2.00;;;;;;;27.50;32.38;101602.56;5033471;28;20484;-83
2022/05/19 09:40:43;;;;;;;7.28;2.13;;;;;;;27.31;32.53;101590.25;5039200;28;20167;-82
2022/05/19 09:43:16;;;;;;;6.45;2.03;;;;;;;27.72;31.82;101589.84;5053762;28;20041;-85
2022/05/19 09:45:45;;;;;;;10.68;1.73;;;;;;;27.37;32.99;101590.09;5034744;28;20026;-84
2022/05/19 09:48:11;;;;;;;11.05;1.88;;;;;;;27.45;33.64;101586.97;5033926;28;20033;-85
2022/05/19 09:50:43;;;;;;;11.60;1.95;;;;;;;27.62;32.57;101584.25;5033812;28;20038;-86
2022/05/19 09:53:35;;;;;;;6.53;1.90;;;;;;;27.71;33.32;101580.84;5033608;28;20124;-82
2022/05/19 09:56:13;;;;;;;18.70;2.17;;;;;;;27.99;32.11;101585.34;5034122;28;20033;-83
2022/05/19 09:58:44;;;;;;;7.28;1.92;;;;;;;27.85;32.83;101575.88;5034279;28;20459;-83
2022/05/19 10:01:29;;;;;;;10.03;2.23;;;;;;;28.13;32.29;101573.03;5033968;28;20044;-83
2022/05/19 10:04:01;;;;;;;9.80;1.67;;;;;;;28.63;31.27;101581.00;5034250;28;20038;-83
2022/05/19 10:06:36;;;;;;;9.50;2.15;;;;;;;28.15;31.76;101579.03;5035356;28;20038;-86
2022/05/19 10:09:19;;;;;;;6.35;1.95;;;;;;;28.41;32.58;101563.00;5038134;28;20053;-86
2022/05/19 10:11:54;;;;;;;6.75;2.15;;;;;;;28.43;32.68;101577.22;5044674;28;20476;-88
2022/05/19 10:14:29;;;;;;;9.35;2.13;;;;;;;28.14;33.38;101571.09;5043502;28;20048;-84
2022/05/19 10:16:55;;;;;;;8.35;2.13;;;;;;;28.07;32.75;101573.22;5036437;28;20061;-87
2022/05/19 10:19:36;;;;;;;5.40;2.08;;;;;;;27.87;33.24;101576.47;5035486;28;20493;-86
2022/05/19 10:22:13;;;;;;;9.57;2.17;;;;;;;27.56;33.82;101568.91;5034979;28;20040;-87
2022/05/19 10:24:58;;;;;;;5.93;2.20;;;;;;;27.84;33.61;101555.13;5035916;28;20033;-88
2022/05/19 10:34:09;;;;;;;8.23;1.90;;;;;;;28.49;32.66;101559.81;5054660;28;20041;-86
2022/05/19 10:36:55;;;;;;;12.82;2.30;;;;;;;28.32;32.35;101550.88;5048008;28;20049;-87
2022/05/19 10:39:52;;;;;;;6.65;1.92;;;;;;;28.30;31.92;101544.88;5037066;28;20108;-88
2022/05/19 10:42:25;;;;;;;5.70;1.80;;;;;;;28.58;30.50;101553.66;5035037;28;20097;-87
2022/05/19 10:45:22;;;;;;;9.98;1.80;;;;;;;28.72;30.84;101556.84;5017113;28;20034;-87
2022/05/19 10:48:15;;;;;;;10.15;1.98;;;;;;;28.61;31.01;101558.59;5034667;28;20136;-84
2022/05/19 10:50:56;;;;;;;4.57;1.60;;;;;;;28.28;30.86;101544.28;5035007;28;20507;-90
2022/05/19 10:53:40;;;;;;;7.07;1.63;;;;;;;28.41;30.99;101546.63;5051629;28;20431;-89
2022/05/19 10:56:13;;;;;;;5.50;1.55;;;;;;;28.53;31.37;101547.31;5052779;28;20132;-86
2022/05/19 10:58:59;;;;;;;7.55;2.05;;;;;;;28.68;30.98;101536.59;5057172;28;20043;-85
2022/05/19 11:01:52;;;;;;;7.25;1.92;;;;;;;29.09;29.79;101535.91;5072520;28;20041;-84
2022/05/19 11:04:20;;;;;;;8.40;2.17;;;;;;;28.85;30.78;101529.13;5054135;28;20041;-86
2022/05/19 11:06:48;;;;;;;11.55;2.33;;;;;;;29.14;30.79;101524.19;5036424;28;20076;-83
2022/05/19 11:09:33;;;;;;;7.10;1.63;;;;;;;29.11;30.45;101547.38;5034261;28;20073;-86
2022/05/19 11:12:15;;;;;;;5.97;1.42;;;;;;;28.94;30.55;101530.31;5050151;28;20041;-85
2022/05/19 11:15:01;;;;;;;8.60;1.67;;;;;;;29.48;29.15;101527.47;5054969;28;20444;-85
2022/05/19 11:18:00;;;;;;;4.55;2.20;;;;;;;29.75;29.12;101531.75;5054283;28;20464;-84
2022/05/19 11:20:33;;;;;;;4.47;1.60;;;;;;;29.51;29.67;101524.22;5054118;28;20040;-86
2022/05/19 11:23:08;;;;;;;6.03;1.77;;;;;;;29.22;30.34;101516.34;5053121;28;20043;-88
2022/05/19 11:28:49;;;;;;;9.68;2.00;;;;;;;28.62;30.95;101504.84;5047683;28;20037;-89
2022/05/19 11:31:39;;;;;;;7.65;2.13;;;;;;;28.08;32.49;101504.81;5033343;28;20041;-88
2022/05/19 11:34:18;;;;;;;10.70;2.20;;;;;;;27.84;33.01;101506.09;5033157;28;20468;-89
2022/05/19 11:37:06;;;;;;;6.25;2.22;;;;;;;27.49;33.63;101484.66;5038777;28;20041;-91
2022/05/19 11:40:01;;;;;;;7.32;1.73;;;;;;;27.39;33.87;101480.91;5037698;28;20048;-87
2022/05/19 11:42:38;;;;;;;3.90;1.70;;;;;;;27.01;34.43;101474.34;5033567;28;20030;-84
2022/05/19 11:45:13;;;;;;;10.38;2.40;;;;;;;27.24;34.26;101481.53;5032218;28;20094;-87
2022/05/19 11:56:35;;;;;;;7.30;2.00;;;;;;;26.80;35.41;101464.16;5038079;28;20037;-88
2022/05/19 11:59:03;;;;;;;9.85;2.10;;;;;;;26.85;35.80;101463.44;5028669;28;20403;-89
2022/05/19 12:01:42;;;;;;;6.63;2.20;;;;;;;26.60;35.85;101463.81;5037574;28;20040;-87
2022/05/19 12:04:18;;;;;;;5.47;1.70;;;;;;;26.76;35.16;101457.56;5041604;28;20087;-89
2022/05/19 12:06:50;;;;;;;5.65;1.90;;;;;;;26.57;35.25;101470.56;5041472;28;20055;-89